sensor_id;sensor_type;location;lat;lon;timestamp;temperature;humidity
75621;DHT22;64574;48.506;-2.750;2023-09-19T00:01:08;15.50;72.30
75621;DHT22;64574;48.506;-2.750;2023-09-19T00:03:35;15.50;72.50
75621;DHT22;64574;48.506;-2.750;2023-09-19T00:06:04;15.50;72.60
75621;DHT22;64574;48.506;-2.750;2023-09-19T00:08:34;15.50;72.90
75621;DHT22;64574;48.506;-2.750;2023-09-19T00:11:00;15.40;72.90
75621;DHT22;64574;48.506;-2.750;2023-09-19T00:13:32;15.50;72.70
75621;DHT22;64574;48.506;-2.750;2023-09-19T00:15:59;15.40;73.50
75621;DHT22;64574;48.506;-2.750;2023-09-19T00:18:25;15.30;73.90
75621;DHT22;64574;48.506;-2.750;2023-09-19T00:20:58;15.40;73.70
75621;DHT22;64574;48.506;-2.750;2023-09-19T00:23:24;15.30;74.00
75621;DHT22;64574;48.506;-2.750;2023-09-19T00:25:50;15.40;73.90
75621;DHT22;64574;48.506;-2.750;2023-09-19T00:28:16;15.40;73.70
75621;DHT22;64574;48.506;-2.750;2023-09-19T00:30:44;15.40;73.80
75621;DHT22;64574;48.506;-2.750;2023-09-19T00:33:11;15.40;73.90
75621;DHT22;64574;48.506;-2.750;2023-09-19T00:35:50;15.30;74.20
75621;DHT22;64574;48.506;-2.750;2023-09-19T00:38:16;15.40;74.20
75621;DHT22;64574;48.506;-2.750;2023-09-19T00:40:47;15.50;74.00
75621;DHT22;64574;48.506;-2.750;2023-09-19T00:43:12;15.50;74.10
75621;DHT22;64574;48.506;-2.750;2023-09-19T00:45:43;15.40;74.40
75621;DHT22;64574;48.506;-2.750;2023-09-19T00:48:09;15.30;74.90
75621;DHT22;64574;48.506;-2.750;2023-09-19T00:50:36;15.30;74.70
75621;DHT22;64574;48.506;-2.750;2023-09-19T00:53:02;15.20;75.40
75621;DHT22;64574;48.506;-2.750;2023-09-19T00:55:35;15.20;75.10
75621;DHT22;64574;48.506;-2.750;2023-09-19T00:58:03;15.30;75.10
75621;DHT22;64574;48.506;-2.750;2023-09-19T01:00:29;15.30;75.00
75621;DHT22;64574;48.506;-2.750;2023-09-19T01:02:54;15.30;75.00
75621;DHT22;64574;48.506;-2.750;2023-09-19T01:05:21;15.40;75.10
75621;DHT22;64574;48.506;-2.750;2023-09-19T01:07:46;15.50;74.60
75621;DHT22;64574;48.506;-2.750;2023-09-19T01:10:17;15.50;74.60
75621;DHT22;64574;48.506;-2.750;2023-09-19T01:17:48;15.30;75.70
75621;DHT22;64574;48.506;-2.750;2023-09-19T01:31:24;15.30;75.80
75621;DHT22;64574;48.506;-2.750;2023-09-19T01:34:01;15.40;75.30
75621;DHT22;64574;48.506;-2.750;2023-09-19T01:36:36;15.40;75.30
75621;DHT22;64574;48.506;-2.750;2023-09-19T01:39:09;15.30;75.80
75621;DHT22;64574;48.506;-2.750;2023-09-19T01:44:24;15.40;75.70
75621;DHT22;64574;48.506;-2.750;2023-09-19T01:46:52;15.30;76.10
75621;DHT22;64574;48.506;-2.750;2023-09-19T01:49:37;15.40;75.30
75621;DHT22;64574;48.506;-2.750;2023-09-19T01:52:11;15.30;75.80
75621;DHT22;64574;48.506;-2.750;2023-09-19T01:54:48;15.30;76.00
75621;DHT22;64574;48.506;-2.750;2023-09-19T01:57:32;15.30;75.90
75621;DHT22;64574;48.506;-2.750;2023-09-19T02:00:04;15.30;76.20
75621;DHT22;64574;48.506;-2.750;2023-09-19T02:02:37;15.30;76.00
75621;DHT22;64574;48.506;-2.750;2023-09-19T02:05:04;15.20;76.20
75621;DHT22;64574;48.506;-2.750;2023-09-19T02:07:30;15.30;76.30
75621;DHT22;64574;48.506;-2.750;2023-09-19T02:09:59;15.30;76.10
75621;DHT22;64574;48.506;-2.750;2023-09-19T02:12:26;15.40;75.80
75621;DHT22;64574;48.506;-2.750;2023-09-19T02:14:52;15.40;76.00
75621;DHT22;64574;48.506;-2.750;2023-09-19T02:17:18;15.50;75.30
75621;DHT22;64574;48.506;-2.750;2023-09-19T02:19:44;15.50;75.50
75621;DHT22;64574;48.506;-2.750;2023-09-19T02:22:10;15.40;75.50
75621;DHT22;64574;48.506;-2.750;2023-09-19T02:24:37;15.40;75.80
75621;DHT22;64574;48.506;-2.750;2023-09-19T02:27:04;15.60;75.00
75621;DHT22;64574;48.506;-2.750;2023-09-19T02:29:31;15.50;75.20
75621;DHT22;64574;48.506;-2.750;2023-09-19T02:32:00;15.50;75.00
75621;DHT22;64574;48.506;-2.750;2023-09-19T02:34:28;15.50;75.10
75621;DHT22;64574;48.506;-2.750;2023-09-19T02:36:54;15.60;74.90
75621;DHT22;64574;48.506;-2.750;2023-09-19T02:39:21;15.50;74.90
75621;DHT22;64574;48.506;-2.750;2023-09-19T02:41:47;15.60;75.10
75621;DHT22;64574;48.506;-2.750;2023-09-19T02:44:12;15.60;74.70
75621;DHT22;64574;48.506;-2.750;2023-09-19T02:46:38;15.50;75.00
75621;DHT22;64574;48.506;-2.750;2023-09-19T02:49:04;15.50;75.30
75621;DHT22;64574;48.506;-2.750;2023-09-19T02:51:32;15.60;75.00
75621;DHT22;64574;48.506;-2.750;2023-09-19T02:54:01;15.50;75.20
75621;DHT22;64574;48.506;-2.750;2023-09-19T02:56:28;15.60;75.00
75621;DHT22;64574;48.506;-2.750;2023-09-19T02:58:56;15.50;75.10
75621;DHT22;64574;48.506;-2.750;2023-09-19T03:01:22;15.60;74.80
75621;DHT22;64574;48.506;-2.750;2023-09-19T03:03:48;15.80;74.10
75621;DHT22;64574;48.506;-2.750;2023-09-19T03:06:13;15.60;74.70
75621;DHT22;64574;48.506;-2.750;2023-09-19T03:08:40;15.60;74.70
75621;DHT22;64574;48.506;-2.750;2023-09-19T03:11:09;15.60;74.60
75621;DHT22;64574;48.506;-2.750;2023-09-19T03:13:37;15.60;74.90
75621;DHT22;64574;48.506;-2.750;2023-09-19T03:16:04;15.70;74.60
75621;DHT22;64574;48.506;-2.750;2023-09-19T03:18:32;15.80;74.50
75621;DHT22;64574;48.506;-2.750;2023-09-19T03:20:57;15.60;75.30
75621;DHT22;64574;48.506;-2.750;2023-09-19T03:23:27;15.50;75.80
75621;DHT22;64574;48.506;-2.750;2023-09-19T03:25:54;15.60;75.30
75621;DHT22;64574;48.506;-2.750;2023-09-19T03:28:20;15.50;75.60
75621;DHT22;64574;48.506;-2.750;2023-09-19T03:30:57;15.60;75.40
75621;DHT22;64574;48.506;-2.750;2023-09-19T03:33:23;15.60;75.30
75621;DHT22;64574;48.506;-2.750;2023-09-19T03:35:52;15.60;75.50
75621;DHT22;64574;48.506;-2.750;2023-09-19T03:38:19;15.60;75.50
75621;DHT22;64574;48.506;-2.750;2023-09-19T03:40:45;15.40;76.10
75621;DHT22;64574;48.506;-2.750;2023-09-19T03:43:10;15.40;76.20
75621;DHT22;64574;48.506;-2.750;2023-09-19T03:45:36;15.50;76.10
75621;DHT22;64574;48.506;-2.750;2023-09-19T03:48:09;15.50;76.30
75621;DHT22;64574;48.506;-2.750;2023-09-19T03:50:34;15.50;76.20
75621;DHT22;64574;48.506;-2.750;2023-09-19T03:53:00;15.60;75.90
75621;DHT22;64574;48.506;-2.750;2023-09-19T03:55:26;15.60;75.90
75621;DHT22;64574;48.506;-2.750;2023-09-19T03:57:52;15.60;76.40
75621;DHT22;64574;48.506;-2.750;2023-09-19T04:00:18;15.70;76.00
75621;DHT22;64574;48.506;-2.750;2023-09-19T04:02:47;15.60;76.40
75621;DHT22;64574;48.506;-2.750;2023-09-19T04:05:13;15.60;76.40
75621;DHT22;64574;48.506;-2.750;2023-09-19T04:07:39;15.60;76.60
75621;DHT22;64574;48.506;-2.750;2023-09-19T04:10:04;15.60;76.60
75621;DHT22;64574;48.506;-2.750;2023-09-19T04:12:31;15.60;76.70
75621;DHT22;64574;48.506;-2.750;2023-09-19T04:14:57;15.60;76.60
75621;DHT22;64574;48.506;-2.750;2023-09-19T04:17:23;15.60;76.60
75621;DHT22;64574;48.506;-2.750;2023-09-19T04:19:49;15.60;76.50
75621;DHT22;64574;48.506;-2.750;2023-09-19T04:22:15;15.60;76.30
75621;DHT22;64574;48.506;-2.750;2023-09-19T04:24:40;15.60;76.50
75621;DHT22;64574;48.506;-2.750;2023-09-19T04:27:06;15.80;76.00
75621;DHT22;64574;48.506;-2.750;2023-09-19T04:29:32;15.70;76.00
75621;DHT22;64574;48.506;-2.750;2023-09-19T04:31:58;15.80;76.00
75621;DHT22;64574;48.506;-2.750;2023-09-19T04:34:24;15.80;75.70
75621;DHT22;64574;48.506;-2.750;2023-09-19T04:36:50;15.60;76.20
75621;DHT22;64574;48.506;-2.750;2023-09-19T04:39:16;15.80;75.80
75621;DHT22;64574;48.506;-2.750;2023-09-19T04:41:43;15.80;75.80
75621;DHT22;64574;48.506;-2.750;2023-09-19T04:44:11;15.70;76.00
75621;DHT22;64574;48.506;-2.750;2023-09-19T04:46:38;15.80;75.70
75621;DHT22;64574;48.506;-2.750;2023-09-19T04:49:03;15.80;75.70
75621;DHT22;64574;48.506;-2.750;2023-09-19T04:51:29;15.80;75.90
75621;DHT22;64574;48.506;-2.750;2023-09-19T04:53:59;15.70;76.10
75621;DHT22;64574;48.506;-2.750;2023-09-19T04:56:25;15.80;76.20
75621;DHT22;64574;48.506;-2.750;2023-09-19T04:58:51;15.80;76.30
75621;DHT22;64574;48.506;-2.750;2023-09-19T05:01:16;15.60;77.00
75621;DHT22;64574;48.506;-2.750;2023-09-19T05:03:42;15.60;77.20
75621;DHT22;64574;48.506;-2.750;2023-09-19T05:06:10;15.70;76.70
75621;DHT22;64574;48.506;-2.750;2023-09-19T05:08:35;15.70;77.00
75621;DHT22;64574;48.506;-2.750;2023-09-19T05:11:04;15.70;76.80
75621;DHT22;64574;48.506;-2.750;2023-09-19T05:13:30;15.70;76.90
75621;DHT22;64574;48.506;-2.750;2023-09-19T05:16:00;15.80;76.10
75621;DHT22;64574;48.506;-2.750;2023-09-19T05:18:28;15.80;76.30
75621;DHT22;64574;48.506;-2.750;2023-09-19T05:20:53;15.80;76.10
75621;DHT22;64574;48.506;-2.750;2023-09-19T05:23:20;15.60;76.50
75621;DHT22;64574;48.506;-2.750;2023-09-19T05:25:46;15.60;76.80
75621;DHT22;64574;48.506;-2.750;2023-09-19T05:28:12;15.60;76.50
75621;DHT22;64574;48.506;-2.750;2023-09-19T05:30:40;15.50;76.90
75621;DHT22;64574;48.506;-2.750;2023-09-19T05:33:06;15.60;76.60
75621;DHT22;64574;48.506;-2.750;2023-09-19T05:35:33;15.60;76.60
75621;DHT22;64574;48.506;-2.750;2023-09-19T05:37:58;15.60;76.40
75621;DHT22;64574;48.506;-2.750;2023-09-19T05:40:25;15.50;76.70
75621;DHT22;64574;48.506;-2.750;2023-09-19T05:42:51;15.50;76.80
75621;DHT22;64574;48.506;-2.750;2023-09-19T05:45:17;15.50;76.70
75621;DHT22;64574;48.506;-2.750;2023-09-19T05:47:48;15.50;77.00
75621;DHT22;64574;48.506;-2.750;2023-09-19T05:50:14;15.50;76.90
75621;DHT22;64574;48.506;-2.750;2023-09-19T05:52:42;15.60;76.90
75621;DHT22;64574;48.506;-2.750;2023-09-19T05:55:09;15.60;76.70
75621;DHT22;64574;48.506;-2.750;2023-09-19T05:57:36;15.60;76.90
75621;DHT22;64574;48.506;-2.750;2023-09-19T06:00:05;15.60;76.70
75621;DHT22;64574;48.506;-2.750;2023-09-19T06:02:37;15.50;77.30
75621;DHT22;64574;48.506;-2.750;2023-09-19T06:05:05;15.60;76.90
75621;DHT22;64574;48.506;-2.750;2023-09-19T06:07:32;15.80;76.60
75621;DHT22;64574;48.506;-2.750;2023-09-19T06:10:05;15.70;76.60
75621;DHT22;64574;48.506;-2.750;2023-09-19T06:12:32;15.60;77.20
75621;DHT22;64574;48.506;-2.750;2023-09-19T06:15:06;15.60;77.40
75621;DHT22;64574;48.506;-2.750;2023-09-19T06:17:34;15.70;77.20
75621;DHT22;64574;48.506;-2.750;2023-09-19T06:20:07;15.60;78.30
75621;DHT22;64574;48.506;-2.750;2023-09-19T06:22:38;15.80;78.60
75621;DHT22;64574;48.506;-2.750;2023-09-19T06:25:04;15.80;79.00
75621;DHT22;64574;48.506;-2.750;2023-09-19T06:27:30;15.80;79.70
75621;DHT22;64574;48.506;-2.750;2023-09-19T06:29:55;15.80;80.00
75621;DHT22;64574;48.506;-2.750;2023-09-19T06:32:27;15.80;80.70
75621;DHT22;64574;48.506;-2.750;2023-09-19T06:34:53;15.80;81.20
75621;DHT22;64574;48.506;-2.750;2023-09-19T06:37:30;15.80;80.70
75621;DHT22;64574;48.506;-2.750;2023-09-19T06:39:55;15.70;81.00
75621;DHT22;64574;48.506;-2.750;2023-09-19T06:42:22;15.60;81.10
75621;DHT22;64574;48.506;-2.750;2023-09-19T06:44:49;15.70;80.90
75621;DHT22;64574;48.506;-2.750;2023-09-19T06:47:14;15.80;80.20
75621;DHT22;64574;48.506;-2.750;2023-09-19T06:49:41;15.80;80.70
75621;DHT22;64574;48.506;-2.750;2023-09-19T06:52:09;15.80;80.40
75621;DHT22;64574;48.506;-2.750;2023-09-19T06:54:35;15.90;80.30
75621;DHT22;64574;48.506;-2.750;2023-09-19T06:57:01;16.00;80.20
75621;DHT22;64574;48.506;-2.750;2023-09-19T06:59:27;16.00;80.10
75621;DHT22;64574;48.506;-2.750;2023-09-19T07:01:52;16.10;79.90
75621;DHT22;64574;48.506;-2.750;2023-09-19T07:04:18;16.10;79.80
75621;DHT22;64574;48.506;-2.750;2023-09-19T07:06:50;15.90;79.80
75621;DHT22;64574;48.506;-2.750;2023-09-19T07:09:16;15.80;80.10
75621;DHT22;64574;48.506;-2.750;2023-09-19T07:11:42;15.80;80.70
75621;DHT22;64574;48.506;-2.750;2023-09-19T07:14:08;16.00;80.70
75621;DHT22;64574;48.506;-2.750;2023-09-19T07:16:37;16.00;80.60
75621;DHT22;64574;48.506;-2.750;2023-09-19T07:19:04;16.00;80.30
75621;DHT22;64574;48.506;-2.750;2023-09-19T07:21:30;16.10;80.00
75621;DHT22;64574;48.506;-2.750;2023-09-19T07:23:56;16.00;80.10
75621;DHT22;64574;48.506;-2.750;2023-09-19T07:26:21;16.10;79.60
75621;DHT22;64574;48.506;-2.750;2023-09-19T07:28:47;16.10;79.20
75621;DHT22;64574;48.506;-2.750;2023-09-19T07:31:13;16.10;79.40
75621;DHT22;64574;48.506;-2.750;2023-09-19T07:33:39;16.10;79.50
75621;DHT22;64574;48.506;-2.750;2023-09-19T07:36:05;16.20;79.50
75621;DHT22;64574;48.506;-2.750;2023-09-19T07:38:31;16.30;79.40
75621;DHT22;64574;48.506;-2.750;2023-09-19T07:41:01;16.40;79.10
75621;DHT22;64574;48.506;-2.750;2023-09-19T07:43:28;16.40;79.00
75621;DHT22;64574;48.506;-2.750;2023-09-19T07:45:53;16.60;78.80
75621;DHT22;64574;48.506;-2.750;2023-09-19T07:48:19;16.70;77.80
75621;DHT22;64574;48.506;-2.750;2023-09-19T07:50:44;16.70;77.70
75621;DHT22;64574;48.506;-2.750;2023-09-19T07:53:10;16.70;77.10
75621;DHT22;64574;48.506;-2.750;2023-09-19T07:55:39;16.70;77.20
75621;DHT22;64574;48.506;-2.750;2023-09-19T07:58:06;16.70;77.10
75621;DHT22;64574;48.506;-2.750;2023-09-19T08:00:32;16.80;77.00
75621;DHT22;64574;48.506;-2.750;2023-09-19T08:03:00;16.80;76.60
75621;DHT22;64574;48.506;-2.750;2023-09-19T08:05:26;16.70;76.60
75621;DHT22;64574;48.506;-2.750;2023-09-19T08:07:52;16.80;76.90
75621;DHT22;64574;48.506;-2.750;2023-09-19T08:10:22;16.90;76.50
75621;DHT22;64574;48.506;-2.750;2023-09-19T08:12:48;16.80;76.80
75621;DHT22;64574;48.506;-2.750;2023-09-19T08:15:18;16.90;76.50
75621;DHT22;64574;48.506;-2.750;2023-09-19T08:17:47;16.90;76.30
75621;DHT22;64574;48.506;-2.750;2023-09-19T08:20:13;17.00;75.00
75621;DHT22;64574;48.506;-2.750;2023-09-19T08:22:52;17.00;75.30
75621;DHT22;64574;48.506;-2.750;2023-09-19T08:25:20;17.00;74.90
75621;DHT22;64574;48.506;-2.750;2023-09-19T08:27:47;17.10;74.70
75621;DHT22;64574;48.506;-2.750;2023-09-19T08:30:19;17.20;74.00
75621;DHT22;64574;48.506;-2.750;2023-09-19T08:33:01;17.20;73.40
75621;DHT22;64574;48.506;-2.750;2023-09-19T08:35:28;17.20;73.00
75621;DHT22;64574;48.506;-2.750;2023-09-19T08:37:54;17.20;72.20
75621;DHT22;64574;48.506;-2.750;2023-09-19T08:40:21;17.30;72.60
75621;DHT22;64574;48.506;-2.750;2023-09-19T08:42:54;17.50;72.10
75621;DHT22;64574;48.506;-2.750;2023-09-19T08:45:20;17.50;71.80
75621;DHT22;64574;48.506;-2.750;2023-09-19T08:48:00;17.50;71.60
75621;DHT22;64574;48.506;-2.750;2023-09-19T08:50:29;17.50;71.80
75621;DHT22;64574;48.506;-2.750;2023-09-19T08:52:56;17.50;71.50
75621;DHT22;64574;48.506;-2.750;2023-09-19T08:55:29;17.50;71.10
75621;DHT22;64574;48.506;-2.750;2023-09-19T08:58:06;17.70;70.90
75621;DHT22;64574;48.506;-2.750;2023-09-19T09:00:36;17.80;70.70
75621;DHT22;64574;48.506;-2.750;2023-09-19T09:03:03;17.80;70.50
75621;DHT22;64574;48.506;-2.750;2023-09-19T09:05:32;17.70;70.30
75621;DHT22;64574;48.506;-2.750;2023-09-19T09:08:00;17.80;70.90
75621;DHT22;64574;48.506;-2.750;2023-09-19T09:10:28;17.80;70.40
75621;DHT22;64574;48.506;-2.750;2023-09-19T09:12:54;17.80;70.70
75621;DHT22;64574;48.506;-2.750;2023-09-19T09:15:23;17.50;71.10
75621;DHT22;64574;48.506;-2.750;2023-09-19T09:17:50;17.60;71.10
75621;DHT22;64574;48.506;-2.750;2023-09-19T09:20:19;17.60;71.60
75621;DHT22;64574;48.506;-2.750;2023-09-19T09:22:55;17.60;71.20
75621;DHT22;64574;48.506;-2.750;2023-09-19T09:25:53;17.70;71.10
75621;DHT22;64574;48.506;-2.750;2023-09-19T09:28:28;17.80;70.80
75621;DHT22;64574;48.506;-2.750;2023-09-19T09:30:57;17.80;70.50
75621;DHT22;64574;48.506;-2.750;2023-09-19T09:33:34;18.00;70.20
75621;DHT22;64574;48.506;-2.750;2023-09-19T09:36:01;18.20;69.90
75621;DHT22;64574;48.506;-2.750;2023-09-19T09:38:29;18.20;69.40
75621;DHT22;64574;48.506;-2.750;2023-09-19T09:40:57;18.20;69.20
75621;DHT22;64574;48.506;-2.750;2023-09-19T09:43:38;18.20;69.20
75621;DHT22;64574;48.506;-2.750;2023-09-19T09:46:19;18.40;68.90
75621;DHT22;64574;48.506;-2.750;2023-09-19T09:48:48;18.40;68.10
75621;DHT22;64574;48.506;-2.750;2023-09-19T09:51:46;18.50;68.00
75621;DHT22;64574;48.506;-2.750;2023-09-19T09:54:27;18.60;67.90
75621;DHT22;64574;48.506;-2.750;2023-09-19T09:57:03;18.70;67.80
75621;DHT22;64574;48.506;-2.750;2023-09-19T10:02:18;18.60;67.00
75621;DHT22;64574;48.506;-2.750;2023-09-19T10:04:54;18.70;66.90
75621;DHT22;64574;48.506;-2.750;2023-09-19T10:07:28;18.60;67.40
75621;DHT22;64574;48.506;-2.750;2023-09-19T10:10:00;18.60;67.20
75621;DHT22;64574;48.506;-2.750;2023-09-19T10:12:31;18.50;67.20
75621;DHT22;64574;48.506;-2.750;2023-09-19T10:14:56;18.60;67.10
75621;DHT22;64574;48.506;-2.750;2023-09-19T10:17:24;18.80;67.00
75621;DHT22;64574;48.506;-2.750;2023-09-19T10:19:55;18.90;66.60
75621;DHT22;64574;48.506;-2.750;2023-09-19T10:22:23;18.70;66.50
75621;DHT22;64574;48.506;-2.750;2023-09-19T10:24:50;19.00;66.40
75621;DHT22;64574;48.506;-2.750;2023-09-19T10:27:19;19.00;65.80
75621;DHT22;64574;48.506;-2.750;2023-09-19T10:29:46;19.10;65.80
75621;DHT22;64574;48.506;-2.750;2023-09-19T10:32:15;19.00;65.60
75621;DHT22;64574;48.506;-2.750;2023-09-19T10:34:46;19.00;66.10
75621;DHT22;64574;48.506;-2.750;2023-09-19T10:37:12;18.90;65.70
75621;DHT22;64574;48.506;-2.750;2023-09-19T10:39:39;19.00;65.40
75621;DHT22;64574;48.506;-2.750;2023-09-19T10:42:06;18.90;65.50
75621;DHT22;64574;48.506;-2.750;2023-09-19T10:44:37;18.90;65.80
75621;DHT22;64574;48.506;-2.750;2023-09-19T10:47:07;18.90;65.20
75621;DHT22;64574;48.506;-2.750;2023-09-19T10:49:34;18.90;65.10
75621;DHT22;64574;48.506;-2.750;2023-09-19T10:52:00;18.90;65.40
75621;DHT22;64574;48.506;-2.750;2023-09-19T10:54:31;19.00;65.50
75621;DHT22;64574;48.506;-2.750;2023-09-19T10:56:59;19.10;65.30
75621;DHT22;64574;48.506;-2.750;2023-09-19T10:59:26;19.00;65.10
75621;DHT22;64574;48.506;-2.750;2023-09-19T11:02:00;19.00;65.40
75621;DHT22;64574;48.506;-2.750;2023-09-19T11:04:42;19.20;65.20
75621;DHT22;64574;48.506;-2.750;2023-09-19T11:07:11;19.10;65.20
75621;DHT22;64574;48.506;-2.750;2023-09-19T11:15:02;19.40;65.10
75621;DHT22;64574;48.506;-2.750;2023-09-19T11:17:35;19.50;65.00
75621;DHT22;64574;48.506;-2.750;2023-09-19T11:30:32;19.30;64.20
75621;DHT22;64574;48.506;-2.750;2023-09-19T11:33:23;19.40;64.30
75621;DHT22;64574;48.506;-2.750;2023-09-19T11:36:35;19.40;64.20
75621;DHT22;64574;48.506;-2.750;2023-09-19T11:46:27;19.40;64.00
75621;DHT22;64574;48.506;-2.750;2023-09-19T11:48:54;19.40;64.50
75621;DHT22;64574;48.506;-2.750;2023-09-19T11:51:21;19.30;64.50
75621;DHT22;64574;48.506;-2.750;2023-09-19T11:53:58;19.30;64.70
75621;DHT22;64574;48.506;-2.750;2023-09-19T11:56:27;19.40;64.60
75621;DHT22;64574;48.506;-2.750;2023-09-19T11:58:54;19.20;64.90
75621;DHT22;64574;48.506;-2.750;2023-09-19T12:01:31;19.10;65.10
75621;DHT22;64574;48.506;-2.750;2023-09-19T12:03:58;19.00;65.00
75621;DHT22;64574;48.506;-2.750;2023-09-19T12:06:29;19.00;65.40
75621;DHT22;64574;48.506;-2.750;2023-09-19T12:08:58;19.00;65.00
75621;DHT22;64574;48.506;-2.750;2023-09-19T12:11:29;18.90;65.30
75621;DHT22;64574;48.506;-2.750;2023-09-19T12:13:58;19.00;65.00
75621;DHT22;64574;48.506;-2.750;2023-09-19T12:16:26;18.90;65.20
75621;DHT22;64574;48.506;-2.750;2023-09-19T12:18:56;18.80;65.50
75621;DHT22;64574;48.506;-2.750;2023-09-19T12:26:25;19.10;65.20
75621;DHT22;64574;48.506;-2.750;2023-09-19T12:28:52;19.30;64.50
75621;DHT22;64574;48.506;-2.750;2023-09-19T12:31:20;19.30;64.10
75621;DHT22;64574;48.506;-2.750;2023-09-19T12:33:45;19.20;64.30
75621;DHT22;64574;48.506;-2.750;2023-09-19T12:38:54;19.20;64.50
75621;DHT22;64574;48.506;-2.750;2023-09-19T12:41:20;19.40;64.10
75621;DHT22;64574;48.506;-2.750;2023-09-19T12:43:47;19.50;64.20
75621;DHT22;64574;48.506;-2.750;2023-09-19T12:46:14;19.40;64.50
75621;DHT22;64574;48.506;-2.750;2023-09-19T12:48:40;19.50;64.30
75621;DHT22;64574;48.506;-2.750;2023-09-19T12:51:10;19.40;64.40
75621;DHT22;64574;48.506;-2.750;2023-09-19T12:56:13;19.50;64.10
75621;DHT22;64574;48.506;-2.750;2023-09-19T12:58:55;19.60;63.90
75621;DHT22;64574;48.506;-2.750;2023-09-19T13:01:21;19.60;63.90
75621;DHT22;64574;48.506;-2.750;2023-09-19T13:04:30;19.70;63.90
75621;DHT22;64574;48.506;-2.750;2023-09-19T13:06:59;19.50;64.60
75621;DHT22;64574;48.506;-2.750;2023-09-19T13:09:27;19.50;64.90
75621;DHT22;64574;48.506;-2.750;2023-09-19T13:12:34;19.50;65.10
75621;DHT22;64574;48.506;-2.750;2023-09-19T13:15:12;19.30;65.50
75621;DHT22;64574;48.506;-2.750;2023-09-19T13:17:43;19.30;66.00
75621;DHT22;64574;48.506;-2.750;2023-09-19T13:20:21;19.30;66.20
75621;DHT22;64574;48.506;-2.750;2023-09-19T13:22:53;19.20;66.10
75621;DHT22;64574;48.506;-2.750;2023-09-19T13:25:21;19.10;66.00
75621;DHT22;64574;48.506;-2.750;2023-09-19T13:27:49;19.10;66.00
75621;DHT22;64574;48.506;-2.750;2023-09-19T13:30:20;18.90;66.40
75621;DHT22;64574;48.506;-2.750;2023-09-19T13:32:46;19.10;66.50
75621;DHT22;64574;48.506;-2.750;2023-09-19T13:35:13;19.00;67.00
75621;DHT22;64574;48.506;-2.750;2023-09-19T13:37:40;19.00;67.20
75621;DHT22;64574;48.506;-2.750;2023-09-19T13:40:15;19.10;67.30
75621;DHT22;64574;48.506;-2.750;2023-09-19T13:42:42;19.10;67.60
75621;DHT22;64574;48.506;-2.750;2023-09-19T13:45:08;19.00;68.00
75621;DHT22;64574;48.506;-2.750;2023-09-19T13:47:37;19.00;68.10
75621;DHT22;64574;48.506;-2.750;2023-09-19T13:50:04;19.20;67.90
75621;DHT22;64574;48.506;-2.750;2023-09-19T13:52:31;19.40;67.00
75621;DHT22;64574;48.506;-2.750;2023-09-19T13:54:57;19.40;67.10
75621;DHT22;64574;48.506;-2.750;2023-09-19T13:57:24;19.40;67.20
75621;DHT22;64574;48.506;-2.750;2023-09-19T13:59:51;19.40;66.90
75621;DHT22;64574;48.506;-2.750;2023-09-19T14:02:17;19.50;67.00
75621;DHT22;64574;48.506;-2.750;2023-09-19T14:04:44;19.50;66.80
75621;DHT22;64574;48.506;-2.750;2023-09-19T14:07:10;19.50;66.20
75621;DHT22;64574;48.506;-2.750;2023-09-19T14:09:36;19.60;66.40
75621;DHT22;64574;48.506;-2.750;2023-09-19T14:12:02;19.60;66.30
75621;DHT22;64574;48.506;-2.750;2023-09-19T14:14:28;19.70;65.90
75621;DHT22;64574;48.506;-2.750;2023-09-19T14:16:54;19.70;65.30
75621;DHT22;64574;48.506;-2.750;2023-09-19T14:19:20;19.70;65.50
75621;DHT22;64574;48.506;-2.750;2023-09-19T14:21:46;19.80;65.50
75621;DHT22;64574;48.506;-2.750;2023-09-19T14:24:16;19.90;65.30
75621;DHT22;64574;48.506;-2.750;2023-09-19T14:26:43;19.60;65.50
75621;DHT22;64574;48.506;-2.750;2023-09-19T14:29:09;19.60;65.40
75621;DHT22;64574;48.506;-2.750;2023-09-19T14:31:37;19.50;65.80
75621;DHT22;64574;48.506;-2.750;2023-09-19T14:34:05;19.50;66.00
75621;DHT22;64574;48.506;-2.750;2023-09-19T14:36:31;19.70;65.90
75621;DHT22;64574;48.506;-2.750;2023-09-19T14:38:56;19.90;65.70
75621;DHT22;64574;48.506;-2.750;2023-09-19T14:41:23;19.80;65.60
75621;DHT22;64574;48.506;-2.750;2023-09-19T14:43:53;19.60;66.00
75621;DHT22;64574;48.506;-2.750;2023-09-19T14:46:21;19.50;66.40
75621;DHT22;64574;48.506;-2.750;2023-09-19T14:48:46;19.50;66.40
75621;DHT22;64574;48.506;-2.750;2023-09-19T14:51:13;19.60;66.40
75621;DHT22;64574;48.506;-2.750;2023-09-19T14:53:40;19.60;66.30
75621;DHT22;64574;48.506;-2.750;2023-09-19T14:56:08;19.80;66.20
75621;DHT22;64574;48.506;-2.750;2023-09-19T14:58:34;19.70;66.50
75621;DHT22;64574;48.506;-2.750;2023-09-19T15:01:07;19.70;66.40
75621;DHT22;64574;48.506;-2.750;2023-09-19T15:03:34;19.50;66.70
75621;DHT22;64574;48.506;-2.750;2023-09-19T15:06:04;19.40;67.10
75621;DHT22;64574;48.506;-2.750;2023-09-19T15:08:36;19.40;67.20
75621;DHT22;64574;48.506;-2.750;2023-09-19T15:11:04;19.50;67.00
75621;DHT22;64574;48.506;-2.750;2023-09-19T15:13:31;19.40;67.10
75621;DHT22;64574;48.506;-2.750;2023-09-19T15:16:03;19.30;67.30
75621;DHT22;64574;48.506;-2.750;2023-09-19T15:18:29;19.40;67.40
75621;DHT22;64574;48.506;-2.750;2023-09-19T15:20:56;19.50;67.10
75621;DHT22;64574;48.506;-2.750;2023-09-19T15:23:22;19.40;67.00
75621;DHT22;64574;48.506;-2.750;2023-09-19T15:25:50;19.30;67.20
75621;DHT22;64574;48.506;-2.750;2023-09-19T15:28:16;19.30;67.20
75621;DHT22;64574;48.506;-2.750;2023-09-19T15:30:41;19.20;67.50
75621;DHT22;64574;48.506;-2.750;2023-09-19T15:33:07;19.10;68.10
75621;DHT22;64574;48.506;-2.750;2023-09-19T15:35:32;19.10;68.20
75621;DHT22;64574;48.506;-2.750;2023-09-19T15:37:58;19.10;68.50
75621;DHT22;64574;48.506;-2.750;2023-09-19T15:40:26;19.10;68.80
75621;DHT22;64574;48.506;-2.750;2023-09-19T15:42:54;19.00;69.10
75621;DHT22;64574;48.506;-2.750;2023-09-19T15:45:23;19.10;68.90
75621;DHT22;64574;48.506;-2.750;2023-09-19T15:47:48;19.10;68.80
75621;DHT22;64574;48.506;-2.750;2023-09-19T15:50:14;19.30;68.50
75621;DHT22;64574;48.506;-2.750;2023-09-19T15:52:41;19.40;68.00
75621;DHT22;64574;48.506;-2.750;2023-09-19T15:55:07;19.30;68.20
75621;DHT22;64574;48.506;-2.750;2023-09-19T15:57:37;19.40;68.30
75621;DHT22;64574;48.506;-2.750;2023-09-19T16:00:04;19.40;68.20
75621;DHT22;64574;48.506;-2.750;2023-09-19T16:02:36;19.30;68.60
75621;DHT22;64574;48.506;-2.750;2023-09-19T16:05:02;19.30;68.50
75621;DHT22;64574;48.506;-2.750;2023-09-19T16:07:31;19.30;68.60
75621;DHT22;64574;48.506;-2.750;2023-09-19T16:09:56;19.30;68.70
75621;DHT22;64574;48.506;-2.750;2023-09-19T16:12:25;19.30;69.00
75621;DHT22;64574;48.506;-2.750;2023-09-19T16:14:51;19.20;69.10
75621;DHT22;64574;48.506;-2.750;2023-09-19T16:17:17;19.20;69.40
75621;DHT22;64574;48.506;-2.750;2023-09-19T16:19:43;19.20;70.00